createdAt,value
2023-01-23T00:01:13.130Z,100235.53
2023-01-23T00:03:40.083Z,100229.78
2023-01-23T00:06:12.349Z,100228.09
2023-01-23T00:08:40.740Z,100226.22
2023-01-23T00:11:11.139Z,100237.66
2023-01-23T00:13:38.202Z,100248.16
2023-01-23T00:16:08.289Z,100254.69
2023-01-23T00:18:35.210Z,100247.38
2023-01-23T00:21:10.843Z,100253.94
2023-01-23T00:23:37.938Z,100246.06
2023-01-23T00:26:11.791Z,100243.88
2023-01-23T00:28:39.355Z,100250.50
2023-01-23T00:31:10.431Z,100257.16
2023-01-23T00:33:37.401Z,100264.09
2023-01-23T00:36:04.572Z,100264.38
2023-01-23T00:38:32.112Z,100260.59
2023-01-23T00:40:59.238Z,100255.69
2023-01-23T00:43:26.119Z,100251.38
2023-01-23T00:45:52.975Z,100244.50
2023-01-23T00:48:19.861Z,100247.88
2023-01-23T00:50:47.158Z,100262.91
2023-01-23T00:53:14.150Z,100258.56
2023-01-23T00:55:41.781Z,100257.25
2023-01-23T00:58:09.570Z,100257.53
2023-01-23T01:00:38.323Z,100249.56
2023-01-23T01:03:06.523Z,100272.59
2023-01-23T01:05:34.999Z,100251.78
2023-01-23T01:08:04.024Z,100270.97
2023-01-23T01:10:32.895Z,100259.16
2023-01-23T01:13:02.172Z,100261.94
2023-01-23T01:15:29.794Z,100265.75
2023-01-23T01:17:57.995Z,100263.31
2023-01-23T01:20:26.674Z,100273.47
2023-01-23T01:22:55.080Z,100270.19
2023-01-23T01:25:22.435Z,100269.03
2023-01-23T01:27:49.332Z,100267.41
2023-01-23T01:30:18.552Z,100270.72
2023-01-23T01:32:47.544Z,100259.19
2023-01-23T01:35:14.399Z,100267.44
2023-01-23T01:37:41.964Z,100269.06
2023-01-23T01:40:13.704Z,100273.75
2023-01-23T01:42:42.855Z,100267.69
2023-01-23T01:45:47.107Z,100280.06
2023-01-23T01:48:15.464Z,100282.50
2023-01-23T01:50:42.748Z,100285.53
2023-01-23T01:53:10.791Z,100277.84
2023-01-23T01:55:39.463Z,100280.59
2023-01-23T01:58:07.336Z,100277.28
2023-01-23T02:00:34.240Z,100295.38
2023-01-23T02:03:03.644Z,100296.75
2023-01-23T02:05:46.530Z,100288.84
2023-01-23T02:08:19.408Z,100292.66
2023-01-23T02:10:47.517Z,100299.78
2023-01-23T02:13:23.396Z,100304.13
2023-01-23T02:15:52.895Z,100282.22
2023-01-23T02:18:21.630Z,100285.22
2023-01-23T02:20:53.212Z,100288.16
2023-01-23T02:23:30.841Z,100296.94
2023-01-23T02:26:11.310Z,100280.28
2023-01-23T02:28:41.729Z,100293.44
2023-01-23T02:31:09.647Z,100301.06
2023-01-23T02:33:36.461Z,100306.00
2023-01-23T02:36:05.669Z,100311.22
2023-01-23T02:38:40.271Z,100297.03
2023-01-23T02:41:12.033Z,100305.50
2023-01-23T02:43:39.813Z,100309.09
2023-01-23T02:46:11.403Z,100301.69
2023-01-23T02:48:40.141Z,100319.50
2023-01-23T02:51:07.644Z,100317.88
2023-01-23T02:53:34.543Z,100314.25
2023-01-23T02:56:01.371Z,100317.06
2023-01-23T02:58:47.440Z,100314.88
2023-01-23T03:01:14.249Z,100317.38
2023-01-23T03:03:43.958Z,100320.34
2023-01-23T03:06:11.699Z,100326.69
2023-01-23T03:08:48.245Z,100308.34
2023-01-23T03:11:18.183Z,100319.03
2023-01-23T03:13:46.914Z,100338.22
2023-01-23T03:16:14.400Z,100327.81
2023-01-23T03:18:53.564Z,100332.19
2023-01-23T03:21:21.668Z,100322.88
2023-01-23T03:23:48.589Z,100325.91
2023-01-23T03:26:18.168Z,100327.84
2023-01-23T03:29:04.468Z,100320.16
2023-01-23T03:31:31.291Z,100329.47
2023-01-23T03:33:58.342Z,100328.38
2023-01-23T03:36:25.239Z,100320.16
2023-01-23T03:39:10.758Z,100319.88
2023-01-23T03:41:39.250Z,100319.88
2023-01-23T03:44:06.726Z,100315.22
2023-01-23T03:46:33.571Z,100312.44
2023-01-23T03:49:00.430Z,100310.25
2023-01-23T03:51:27.431Z,100324.28
2023-01-23T03:53:54.644Z,100334.13
2023-01-23T03:56:21.720Z,100320.72
2023-01-23T03:58:48.623Z,100322.91
2023-01-23T04:01:15.536Z,100317.69
2023-01-23T04:03:43.924Z,100316.31
2023-01-23T04:06:10.952Z,100321.78
2023-01-23T04:08:38.196Z,100330.81
2023-01-23T04:11:08.075Z,100328.66
2023-01-23T04:13:35.435Z,100334.69
2023-01-23T04:16:02.779Z,100332.75
2023-01-23T04:18:29.810Z,100337.72
2023-01-23T04:20:57.471Z,100336.31
2023-01-23T04:23:24.391Z,100341.53
2023-01-23T04:25:52.778Z,100338.81
2023-01-23T04:28:20.259Z,100345.38
2023-01-23T04:30:51.272Z,100349.78
2023-01-23T04:33:24.458Z,100365.66
2023-01-23T04:35:57.614Z,100364.28
2023-01-23T04:38:27.667Z,100365.09
2023-01-23T04:40:55.217Z,100375.25
2023-01-23T04:43:22.570Z,100370.06
2023-01-23T04:45:55.750Z,100359.63
2023-01-23T04:48:50.161Z,100380.47
2023-01-23T04:51:17.732Z,100376.63
2023-01-23T04:53:45.612Z,100371.69
2023-01-23T04:56:12.462Z,100363.47
2023-01-23T04:58:39.296Z,100372.78
2023-01-23T05:01:08.092Z,100376.63
2023-01-23T05:03:37.385Z,100373.88
2023-01-23T05:06:04.514Z,100362.63
2023-01-23T05:08:31.561Z,100373.63
2023-01-23T05:11:11.686Z,100382.09
2023-01-23T05:13:38.754Z,100388.69
2023-01-23T05:16:06.538Z,100400.19
2023-01-23T05:18:50.054Z,100387.03
2023-01-23T05:21:16.895Z,100396.09
2023-01-23T05:23:43.742Z,100397.16
2023-01-23T05:26:13.295Z,100399.91
2023-01-23T05:28:40.151Z,100393.84
2023-01-23T05:31:07.141Z,100405.09
2023-01-23T05:33:40.765Z,100407.81
2023-01-23T05:36:08.085Z,100407.00
2023-01-23T05:38:35.165Z,100413.31
2023-01-23T05:41:03.651Z,100418.53
2023-01-23T05:43:50.275Z,100422.63
2023-01-23T05:46:28.418Z,100416.63
2023-01-23T05:48:56.400Z,100420.47
2023-01-23T05:51:24.833Z,100431.13
2023-01-23T05:53:52.973Z,100430.59
2023-01-23T05:56:20.122Z,100444.03
2023-01-23T05:59:10.183Z,100443.19
2023-01-23T06:01:45.106Z,100445.63
2023-01-23T06:04:30.631Z,100453.00
2023-01-23T06:07:17.828Z,100459.88
2023-01-23T06:09:46.312Z,100451.91
2023-01-23T06:12:13.743Z,100463.97
2023-01-23T06:14:40.934Z,100457.41
2023-01-23T06:17:08.914Z,100458.44
2023-01-23T06:19:35.978Z,100481.81
2023-01-23T06:22:03.841Z,100475.19
2023-01-23T06:24:37.898Z,100478.75
2023-01-23T06:27:08.376Z,100494.06
2023-01-23T06:29:37.037Z,100486.41
2023-01-23T06:32:04.679Z,100499.53
2023-01-23T06:34:31.677Z,100497.03
2023-01-23T06:37:02.957Z,100493.44
2023-01-23T06:39:34.183Z,100490.75
2023-01-23T06:42:02.037Z,100494.25
2023-01-23T06:44:29.088Z,100501.97
2023-01-23T06:46:56.157Z,100506.84
2023-01-23T06:49:24.510Z,100516.69
2023-01-23T06:51:52.212Z,100503.53
2023-01-23T06:54:19.175Z,100508.25
2023-01-23T06:56:46.210Z,100509.66
2023-01-23T06:59:13.355Z,100508.50
2023-01-23T07:01:41.085Z,100512.38
2023-01-23T07:04:19.604Z,100516.22
2023-01-23T07:07:08.167Z,100536.47
2023-01-23T07:09:35.114Z,100524.91
2023-01-23T07:12:08.128Z,100538.06
2023-01-23T07:14:35.316Z,100532.84
2023-01-23T07:17:02.726Z,100544.59
2023-01-23T07:19:30.471Z,100552.28
2023-01-23T07:22:01.173Z,100542.16
2023-01-23T07:24:30.067Z,100543.81
2023-01-23T07:26:56.850Z,100539.97
2023-01-23T07:29:23.900Z,100551.75
2023-01-23T07:31:50.765Z,100552.50
2023-01-23T07:34:17.651Z,100539.03
2023-01-23T07:36:44.472Z,100537.44
2023-01-23T07:39:11.336Z,100537.59
2023-01-23T07:41:38.136Z,100529.66
2023-01-23T07:44:07.778Z,100530.13
2023-01-23T07:46:34.826Z,100547.94
2023-01-23T07:49:01.797Z,100541.63
2023-01-23T07:51:28.729Z,100555.81
2023-01-23T07:53:55.642Z,100557.88
2023-01-23T07:56:22.560Z,100541.41
2023-01-23T07:58:51.123Z,100565.75
2023-01-23T08:01:19.376Z,100551.53
2023-01-23T08:03:47.166Z,100549.06
2023-01-23T08:06:14.894Z,100551.91
2023-01-23T08:08:41.724Z,100557.50
2023-01-23T08:11:12.861Z,100554.72
2023-01-23T08:13:40.187Z,100562.66
2023-01-23T08:16:07.885Z,100556.84
2023-01-23T08:18:35.086Z,100572.66
2023-01-23T08:21:03.425Z,100566.91
2023-01-23T08:23:32.548Z,100573.22
2023-01-23T08:26:02.124Z,100571.81
2023-01-23T08:28:29.154Z,100571.03
2023-01-23T08:30:59.979Z,100588.53
2023-01-23T08:33:26.835Z,100585.56
2023-01-23T08:35:56.665Z,100571.78
2023-01-23T08:38:24.327Z,100586.28
2023-01-23T08:40:53.646Z,100595.97
2023-01-23T08:43:20.973Z,100587.50
2023-01-23T08:45:52.924Z,100585.84
2023-01-23T08:48:21.258Z,100571.69
2023-01-23T08:50:48.862Z,100577.25
2023-01-23T08:53:16.300Z,100574.31
2023-01-23T08:55:43.460Z,100569.81
2023-01-23T08:58:13.215Z,100575.75
2023-01-23T09:00:40.721Z,100577.94
2023-01-23T09:03:09.868Z,100576.91
2023-01-23T09:05:38.070Z,100566.66
2023-01-23T09:08:05.153Z,100568.81
2023-01-23T09:10:32.266Z,100570.56
2023-01-23T09:12:59.057Z,100572.13
2023-01-23T09:15:25.882Z,100563.06
2023-01-23T09:17:52.737Z,100562.00
2023-01-23T09:20:19.907Z,100568.91
2023-01-23T09:22:47.027Z,100551.47
2023-01-23T09:25:14.461Z,100559.00
2023-01-23T09:27:41.999Z,100562.94
2023-01-23T09:30:09.497Z,100566.75
2023-01-23T09:32:36.629Z,100561.19
2023-01-23T09:35:04.520Z,100570.00
2023-01-23T09:37:51.422Z,100575.94
2023-01-23T09:40:22.724Z,100560.97
2023-01-23T09:42:50.222Z,100570.16
2023-01-23T09:45:21.504Z,100468.66
2023-01-23T09:47:53.464Z,100565.78
2023-01-23T09:50:31.630Z,100570.31
2023-01-23T09:53:05.905Z,100561.03
2023-01-23T09:55:49.115Z,100572.03
2023-01-23T09:58:22.214Z,100571.34
2023-01-23T10:00:51.634Z,100565.69
2023-01-23T10:03:18.781Z,100576.13
2023-01-23T10:06:00.676Z,100580.44
2023-01-23T10:09:01.618Z,100573.31
2023-01-23T10:11:49.873Z,100586.91
2023-01-23T10:14:52.656Z,100568.22
2023-01-23T10:17:44.452Z,100554.13
2023-01-23T10:20:11.288Z,100571.00
2023-01-23T10:22:47.433Z,100562.78
2023-01-23T10:25:25.470Z,100556.34
2023-01-23T10:27:58.620Z,100561.00
2023-01-23T10:30:28.263Z,100559.97
2023-01-23T10:33:02.466Z,100564.28
2023-01-23T10:35:48.874Z,100566.19
2023-01-23T10:38:49.167Z,100566.75
2023-01-23T10:41:23.513Z,100565.38
2023-01-23T10:43:55.530Z,100549.94
2023-01-23T10:46:29.944Z,100554.44
2023-01-23T10:48:56.925Z,100545.41
2023-01-23T10:51:38.974Z,100550.88
2023-01-23T10:54:11.316Z,100548.44
2023-01-23T10:56:47.943Z,100525.41
2023-01-23T10:59:35.366Z,100538.59
2023-01-23T11:02:14.515Z,100540.84
2023-01-23T11:04:54.435Z,100550.47
2023-01-23T11:07:34.648Z,100538.47
2023-01-23T11:10:12.448Z,100543.59
2023-01-23T11:12:48.883Z,100530.91
2023-01-23T11:15:22.466Z,100546.25
2023-01-23T11:17:52.074Z,100536.13
2023-01-23T11:20:31.855Z,100535.38
2023-01-23T11:23:02.018Z,100532.31
2023-01-23T11:25:32.450Z,100523.88
2023-01-23T11:28:01.694Z,100533.75
2023-01-23T11:30:42.377Z,100536.22
2023-01-23T11:33:34.225Z,100552.38
2023-01-23T11:36:19.371Z,100538.91
2023-01-23T11:39:05.096Z,100532.28
2023-01-23T11:41:35.346Z,100530.66
2023-01-23T11:44:10.027Z,100541.94
2023-01-23T11:46:53.595Z,100533.75
2023-01-23T11:49:29.374Z,100519.44
2023-01-23T11:52:08.237Z,100551.72
2023-01-23T11:54:50.298Z,100550.81
2023-01-23T11:57:30.642Z,100542.88
2023-01-23T12:00:22.041Z,100543.44
2023-01-23T12:03:19.631Z,100547.81
2023-01-23T12:06:19.342Z,100548.91
2023-01-23T12:08:49.811Z,100552.56
2023-01-23T12:11:20.239Z,100552.84
2023-01-23T12:14:19.858Z,100555.25
2023-01-23T12:17:08.792Z,100562.66
2023-01-23T12:19:41.832Z,100554.06
2023-01-23T12:22:42.274Z,100549.88
2023-01-23T12:25:44.086Z,100552.25
2023-01-23T12:28:24.302Z,100557.53
2023-01-23T12:31:15.735Z,100552.97
2023-01-23T12:34:19.303Z,100556.75
2023-01-23T12:37:09.907Z,100564.28
2023-01-23T12:40:03.995Z,100564.59
2023-01-23T12:42:42.125Z,100524.91
2023-01-23T12:45:12.121Z,100565.13
2023-01-23T12:47:42.340Z,100562.00
2023-01-23T12:50:35.921Z,100568.91
2023-01-23T12:53:11.127Z,100559.88
2023-01-23T12:56:01.982Z,100572.25
2023-01-23T12:58:32.151Z,100571.22
2023-01-23T13:01:38.082Z,100579.41
2023-01-23T13:04:34.470Z,100578.03
2023-01-23T13:07:39.761Z,100590.63
2023-01-23T13:10:59.476Z,100588.44
2023-01-23T13:13:27.926Z,100579.88
2023-01-23T13:16:15.675Z,100591.13
2023-01-23T13:19:16.536Z,100581.16
2023-01-23T13:22:18.902Z,100575.94
2023-01-23T13:25:18.893Z,100580.72
2023-01-23T13:27:49.581Z,100580.94
2023-01-23T13:30:23.145Z,100580.63
2023-01-23T13:32:51.734Z,100587.56
2023-01-23T13:35:42.420Z,100599.00
2023-01-23T13:38:21.449Z,100595.91
2023-01-23T13:41:11.768Z,100598.75
2023-01-23T13:43:53.409Z,100580.06
2023-01-23T14:21:49.674Z,100597.53
2023-01-23T14:24:42.757Z,100620.72
2023-01-23T14:27:21.602Z,100602.81
2023-01-23T14:30:09.778Z,100618.00
2023-01-23T14:32:38.429Z,100616.72
2023-01-23T14:35:18.922Z,100615.13
2023-01-23T14:37:47.118Z,100614.88
2023-01-23T14:40:26.550Z,100617.94
2023-01-23T14:43:05.424Z,100624.41
2023-01-23T14:45:33.885Z,100604.31
2023-01-23T14:48:08.755Z,100614.31
2023-01-23T14:50:36.346Z,100612.94
2023-01-23T14:53:07.207Z,100621.63
2023-01-23T14:55:41.322Z,100615.75
2023-01-23T14:58:18.773Z,100614.16
2023-01-23T15:00:49.101Z,100616.16
2023-01-23T15:03:44.671Z,100625.19
2023-01-23T15:06:31.515Z,100616.06
2023-01-23T15:09:07.086Z,100609.47
2023-01-23T15:11:34.612Z,100626.16
2023-01-23T15:14:02.422Z,100627.41
2023-01-23T15:16:38.267Z,100607.84
2023-01-23T15:19:22.662Z,100627.59
2023-01-23T15:21:50.067Z,100643.56
2023-01-23T15:24:21.464Z,100631.63
2023-01-23T15:27:05.909Z,100630.97
2023-01-23T15:29:33.782Z,100645.72
2023-01-23T15:32:01.485Z,100641.09
2023-01-23T15:34:32.288Z,100639.53
2023-01-23T15:37:20.855Z,100652.34
2023-01-23T15:39:52.096Z,100650.59
2023-01-23T15:42:18.727Z,100637.44
2023-01-23T15:44:45.775Z,100636.53
2023-01-23T15:47:12.637Z,100644.72
2023-01-23T15:49:40.551Z,100655.97
2023-01-23T15:52:23.504Z,100634.47
2023-01-23T15:54:57.189Z,100651.38
2023-01-23T15:57:24.154Z,100645.91
2023-01-23T15:59:51.108Z,100650.53
2023-01-23T16:02:39.398Z,100651.28
2023-01-23T16:05:08.011Z,100646.16
2023-01-23T16:07:37.632Z,100666.41
2023-01-23T16:10:18.443Z,100665.75
2023-01-23T16:12:48.852Z,100674.84
2023-01-23T16:15:16.895Z,100675.84
2023-01-23T16:17:44.577Z,100688.66
2023-01-23T16:20:23.515Z,100687.00
2023-01-23T16:22:53.840Z,100676.44
2023-01-23T16:25:53.628Z,100691.91
2023-01-23T16:28:23.080Z,100695.03
2023-01-23T16:30:51.837Z,100678.06
2023-01-23T16:33:20.135Z,100680.63
2023-01-23T16:35:47.987Z,100689.91
2023-01-23T16:38:20.996Z,100611.16
2023-01-23T16:40:50.794Z,100694.03
2023-01-23T16:43:17.756Z,100691.22
2023-01-23T16:45:44.883Z,100687.75
2023-01-23T16:48:21.690Z,100696.94
2023-01-23T16:50:57.719Z,100690.06
2023-01-23T16:53:28.118Z,100703.13
2023-01-23T16:55:57.655Z,100688.56
2023-01-23T16:58:39.288Z,100694.84
2023-01-23T17:01:16.072Z,100635.94
2023-01-23T17:03:44.392Z,100693.06
2023-01-23T17:06:16.090Z,100693.88
2023-01-23T17:08:43.280Z,100694.69
2023-01-23T17:11:37.956Z,100697.69
2023-01-23T17:14:09.093Z,100700.34
2023-01-23T17:16:36.127Z,100688.41
2023-01-23T17:19:10.438Z,100688.81
2023-01-23T17:21:37.294Z,100691.06
2023-01-23T17:24:04.443Z,100689.72
2023-01-23T17:26:40.997Z,100697.34
2023-01-23T17:29:08.709Z,100690.97
2023-01-23T17:31:37.623Z,100700.31
2023-01-23T17:34:05.488Z,100707.00
2023-01-23T17:36:32.671Z,100698.47
2023-01-23T17:39:00.184Z,100701.38
2023-01-23T17:41:27.182Z,100715.03
2023-01-23T17:43:54.155Z,100695.00
2023-01-23T17:46:26.320Z,100708.16
2023-01-23T17:48:54.517Z,100709.00
2023-01-23T17:51:23.315Z,100725.31
2023-01-23T17:53:50.614Z,100713.84
2023-01-23T17:56:17.678Z,100712.25
2023-01-23T17:58:44.873Z,100708.22
2023-01-23T18:01:24.438Z,100703.34
2023-01-23T18:03:52.544Z,100711.53
2023-01-23T18:06:19.624Z,100708.69
2023-01-23T18:08:46.829Z,100727.84
2023-01-23T18:11:24.338Z,100722.09
2023-01-23T18:14:15.622Z,100719.22
2023-01-23T18:16:45.923Z,100726.78
2023-01-23T18:19:21.606Z,100726.19
2023-01-23T18:21:51.668Z,100721.56
2023-01-23T18:24:30.553Z,100736.00
2023-01-23T18:27:27.168Z,100706.09
2023-01-23T18:30:06.431Z,100723.47
2023-01-23T18:33:11.379Z,100740.69
2023-01-23T18:36:00.873Z,100737.78
2023-01-23T18:38:47.581Z,100740.50
2023-01-23T18:41:20.368Z,100737.91
2023-01-23T18:43:59.675Z,100740.19
2023-01-23T18:46:28.970Z,100736.50
2023-01-23T18:48:58.273Z,100736.03
2023-01-23T18:51:36.117Z,100750.22
2023-01-23T18:54:13.380Z,100728.91
2023-01-23T18:56:57.161Z,100742.19
2023-01-23T18:59:34.650Z,100747.22
2023-01-23T19:02:26.735Z,100725.38
2023-01-23T19:05:15.572Z,100740.88
2023-01-23T19:07:46.296Z,100751.78
2023-01-23T19:10:21.008Z,100746.75
2023-01-23T19:13:16.458Z,100758.88
2023-01-23T19:15:43.556Z,100764.94
2023-01-23T19:18:14.236Z,100766.94
2023-01-23T19:20:52.276Z,100742.69
2023-01-23T19:23:41.960Z,100776.53
2023-01-23T19:26:15.577Z,100775.00
2023-01-23T19:28:45.075Z,100774.91
2023-01-23T19:31:34.857Z,100771.47
2023-01-23T19:34:04.747Z,100789.09
2023-01-23T19:36:36.005Z,100777.84
2023-01-23T19:39:08.125Z,100783.28
2023-01-23T19:41:50.529Z,100771.44
2023-01-23T19:44:22.402Z,100784.97
2023-01-23T19:46:50.889Z,100784.94
2023-01-23T19:49:19.077Z,100781.28
2023-01-23T19:51:48.437Z,100785.53
2023-01-23T19:54:17.314Z,100796.34
2023-01-23T19:56:45.079Z,100795.63
2023-01-23T19:59:46.171Z,100788.97
2023-01-23T20:02:20.989Z,100789.66
2023-01-23T20:04:48.280Z,100779.50
2023-01-23T20:07:15.046Z,100784.84
2023-01-23T20:09:42.278Z,100788.75
2023-01-23T20:12:12.462Z,100798.56
2023-01-23T20:14:39.815Z,100793.72
2023-01-23T20:17:07.163Z,100795.97
2023-01-23T20:19:34.532Z,100784.59
2023-01-23T20:22:01.691Z,100797.00
2023-01-23T20:24:29.135Z,100802.81
2023-01-23T20:26:56.322Z,100807.91
2023-01-23T20:32:33.986Z,100813.56
2023-01-23T20:35:01.489Z,100799.38
2023-01-23T20:37:28.482Z,100798.78
2023-01-23T20:39:55.505Z,100814.41
2023-01-23T20:42:22.430Z,100801.69
2023-01-23T20:44:49.485Z,100812.38
2023-01-23T20:47:16.291Z,100793.25
2023-01-23T20:49:43.790Z,100826.47
2023-01-23T20:52:29.248Z,100825.31
2023-01-23T20:54:56.091Z,100834.31
2023-01-23T20:57:22.852Z,100831.03
2023-01-23T20:59:49.699Z,100825.91
2023-01-23T21:02:28.305Z,100835.03
2023-01-23T21:04:55.619Z,100825.59
2023-01-23T21:07:22.957Z,100842.28
2023-01-23T21:09:50.036Z,100841.00
2023-01-23T21:12:16.947Z,100834.94
2023-01-23T21:14:43.682Z,100845.25
2023-01-23T21:17:10.508Z,100826.16
2023-01-23T21:19:39.082Z,100839.41
2023-01-23T21:22:06.918Z,100838.81
2023-01-23T21:24:39.490Z,100845.50
2023-01-23T21:27:13.608Z,100844.59
2023-01-23T21:29:40.598Z,100858.03
2023-01-23T21:32:07.408Z,100860.78
2023-01-23T21:34:34.255Z,100850.34
2023-01-23T21:37:01.103Z,100858.19
2023-01-23T21:39:27.947Z,100861.66
2023-01-23T21:41:54.716Z,100848.41
2023-01-23T21:44:21.526Z,100855.66
2023-01-23T21:46:49.220Z,100853.09
2023-01-23T21:49:16.080Z,100853.22
2023-01-23T21:51:44.765Z,100847.94
2023-01-23T21:54:11.663Z,100853.91
2023-01-23T21:56:38.536Z,100846.75
2023-01-23T21:59:05.570Z,100843.50
2023-01-23T22:01:33.257Z,100853.16
2023-01-23T22:04:09.303Z,100842.88
2023-01-23T22:06:38.210Z,100851.19
2023-01-23T22:09:05.716Z,100855.72
2023-01-23T22:11:32.906Z,100843.56
2023-01-23T22:14:00.248Z,100864.16
2023-01-23T22:16:45.634Z,100865.47
2023-01-23T22:19:15.592Z,100873.72
2023-01-23T22:21:43.867Z,100855.75
2023-01-23T22:24:10.936Z,100857.28
2023-01-23T22:26:37.873Z,100860.97
2023-01-23T22:29:04.728Z,100863.84
2023-01-23T22:31:31.720Z,100858.56
2023-01-23T22:33:58.603Z,100858.78
2023-01-23T22:36:25.775Z,100868.09
2023-01-23T22:38:54.394Z,100883.31
2023-01-23T22:41:22.200Z,100880.47
2023-01-23T22:43:56.925Z,100880.75
2023-01-23T22:46:24.095Z,100871.56
2023-01-23T22:48:51.765Z,100863.84
2023-01-23T22:51:24.180Z,100863.84
2023-01-23T22:53:52.427Z,100875.94
2023-01-23T22:56:19.531Z,100871.56
2023-01-23T22:58:50.817Z,100863.09
2023-01-23T23:01:18.456Z,100868.38
2023-01-23T23:03:45.544Z,100872.06
2023-01-23T23:06:14.519Z,100873.66
2023-01-23T23:08:42.194Z,100861.22
2023-01-23T23:11:19.311Z,100880.31
2023-01-23T23:13:46.648Z,100871.19
2023-01-23T23:16:26.143Z,100855.47
2023-01-23T23:18:55.317Z,100858.72
2023-01-23T23:21:25.384Z,100861.28
2023-01-23T23:23:57.304Z,100863.84
2023-01-23T23:26:26.502Z,100863.25
2023-01-23T23:28:54.705Z,100863.78
2023-01-23T23:31:21.683Z,100862.94
2023-01-23T23:33:48.501Z,100867.91
2023-01-23T23:36:15.331Z,100872.06
2023-01-23T23:38:42.239Z,100868.34
2023-01-23T23:41:12.554Z,100871.31
2023-01-23T23:43:39.591Z,100864.13
2023-01-23T23:46:08.192Z,100854.78
2023-01-23T23:48:36.751Z,100856.22
2023-01-23T23:51:06.696Z,100859.59
2023-01-23T23:53:34.787Z,100863.38
2023-01-23T23:56:01.685Z,100867.91
2023-01-23T23:58:28.542Z,100871.31
